Terminal Aerodrome Forecast
Issued by NWS Louisville, KY

Home | Current Version | Previous Version | Text Only | Print | Product List | Glossary On
Versions: 1 2 3 4 5 6 7 8 9 10 11 12 13 14 15 16 17 18 19 20 21 22 23 24 25
683
FTUS43 KLMK 272210 AAA
TAFSDF
TAF AMD
KSDF 272210Z 2722/2824 VRB06KT P6SM VCTS SCT040CB BKN120
     FM272330 VRB05KT P6SM BKN120
     FM280500 21003KT P6SM BKN120
     FM281100 VRB03KT 5SM BR BKN150
      TEMPO 2812/2814 3SM BR
     FM281800 VRB03KT P6SM VCTS SCT030CB BKN150=

USA.gov is the U.S. government's official web portal to all federal, state and local government web resources and services.